Airfield :
LOGIN :

Register | Disclaimer

   EN    FR    IT 

 










Legend :    VFR   Marginal VFR   IFR   Intensive IFR   Very Intensive IFR
Visi :
Ceiling :
>= 8 km
>= 3000ft
5 to 8 km
1000 to 3000 ft
1500m to 5 km
500 to 1000 ft
800 to 1500m
200 to 500 ft
< 800m
< 200 ft
Symbols :   Thunderstorms  Fog  Heavy snow  Heavy precipitations  Wind > 20 kt
SIGMETs :     Misc.  Thunderstorms  Icing  Turbulence  Mountain Waves  Volcanic Ashes







- Airport Elevation : 935 ft


EBFS - Florennes

CURRENT METAR :
  • 211155Z 33009KT 9999 FEW040 SCT250 16/06 Q1022 BLU BLU

EXPIRED METARs :
  • 211125Z 34012KT 9999 FEW030 BKN250 16/06 Q1022 BLU BLU
  • 211055Z 33011KT 9999 FEW020 BKN250 15/06 Q1022 BLU BLU
  • 211025Z 32010KT 9999 FEW020 BKN250 15/08 Q1022 BLU BLU
  • 211023Z 32011KT 9999 FEW020 BKN250 15/07 Q1022 BLU BLU
  • 211013Z 33011KT 9999 FEW015 BKN022 14/07 Q1022 WHT WHT BECMG BLU
  • 210955Z 33013KT 9999 FEW015 BKN022 15/09 Q1022 WHT WHT
  • 210925Z 31011KT 9999 FEW015 BKN022 14/09 Q1021 WHT WHT
  • 210924Z 31011KT 9999 FEW015 BKN022 14/09 Q1021 WHT WHT

TAF TAF EBFS
Valid from the 21 at 10:00 until the 21 at 19:00 UTC


210841Z 2110/2119 24015KT 9999 FEW020 BKN030
TEMPO 2110/2112 FEW015 BKN020
No reported NOTAMs for that airfield.



MET'MAP, your aeronautical weather chart ! - Copyright ORBIFLY December 2007 - Disclaimer

ORBIFLY MET'MAP TEAM :

Programming & Development : Alexandra Zaïnal
Concept & Development : Baudouin d'Aumeries
Co-Development & Prog : Marc-Olivier Méhu
Technical & hardware support : Manuel Goepfert

Contact : metmap@orbifly.com




SOURCES & CREDITS :

   NOAA